Yarmouth Port, MA

15:12 EST le 28 janvier 2015 (GMT -0500)
Chatham Municipal | Change Station
CLOSE
Current Station
Aéroport
Location: Chatham,
Altitude: 66 ft
Stations météo à proximité

Alt. 66 ft 41.69 °N, 69.99 °W | Updated 13 minutes ago

Couvert
Couvert
24 ° F
Paraît 17 ° F
N
6
Vent Variable Vent de Variable

Aujourd'hui
Haut(e) -- | Bas -- ° F
--% Risque de précip.
Hier
Haut(e) -- | Bas -- ° F
Precip. -- pouce
6:57 AM 4:51 PM
Lune gibbeuse croissante, 67% visible
Pression 29.97 pouce
Visibilité 6.0 Miles terrestres
Nuages Couvert 2800 ft
Refroidissement éolien 17 ° F
Point de rosée 16 ° F
Humidité 71%
Précipitations 0.06 pouce
Profondeur de la couche neigeuse Non disponible.
UV 0 sur 12
Pollen .10 sur 12
Qualité de l'air Non disponible.
Flu Activity Non disponible.
SPECI KCQX 281959Z AUTO VRB05KT 6SM -SN OVC028 M04/M09 A2997 RMK AO2 SNB54 P0000 T10441089

More Conditions Fewer Conditions

Pression 29.97 pouce
Visibilité 6.0 Miles terrestres
Nuages Couvert 2800 ft
Refroidissement éolien 17 ° F
Point de rosée 16 ° F
Humidité 71%
Précipitations 0.06 pouce
Profondeur de la couche neigeuse Non disponible.
UV 0 sur 12
Pollen .10 sur 12
Qualité de l'air Non disponible.
Flu Activity Non disponible.
SPECI KCQX 281959Z AUTO VRB05KT 6SM -SN OVC028 M04/M09 A2997 RMK AO2 SNB54 P0000 T10441089

More Conditions Fewer Conditions

10-Day Weather Forecast

Almanac

Astronomie

Jan. 28, 2015 Lever Coucher
Temps réel
Crépuscule civil
Crépuscule nautique
Crépuscule astronomique
Lune
Durée de lumière visible
Longueur du jour
Tomorrow will be .
, % of the Moon is Illuminated

Extrêmes aujourd'hui

State Highs State Lows

Community

WunderPhotos

Upload Photos

1,791,251 Photos téléchargées !

WunderBlogs® & News

Nearby

Qualité de l'air

  Qualité de l'air Indice de la qualité de l'air Polluant
Not available.

Épaisseur de neige

Station Depth Altitude

Activité sismique

Ville Distance Mag. Time & Date
Minimum magnitude displayed is 2.5.

Températures des eaux côtières

Lieu Température

Stations météo à proximité